Time;durP1;ratioP1;P1;durP2;ratioP2;P2;SDS_P1;SDS_P2;PMS_P1;PMS_P2;Temp;Humidity;BMP_temperature;BMP_pressure;BME280_temperature;BME280_humidity;BME280_pressure;Samples;Min_cycle;Max_cycle;Signal;HPM_P1;HPM_P2
2023/01/21 00:01:17;;;;;;;17.93;8.53;;;0.80;99.90;;;;;;5051440;28;20692;-74
2023/01/21 00:03:43;;;;;;;18.87;8.63;;;0.80;99.90;;;;;;5048783;28;20589;-74
2023/01/21 00:06:10;;;;;;;17.73;8.70;;;0.80;99.90;;;;;;5051260;28;20202;-75
2023/01/21 00:08:36;;;;;;;21.57;9.87;;;0.80;99.90;;;;;;5051828;28;20201;-73
2023/01/21 00:11:13;;;;;;;21.30;8.80;;;0.90;99.90;;;;;;5051103;28;20207;-73
2023/01/21 00:13:39;;;;;;;17.50;8.43;;;0.80;99.90;;;;;;5044512;28;20317;-71
2023/01/21 00:16:06;;;;;;;20.70;9.53;;;0.90;99.90;;;;;;5050816;28;20318;-71
2023/01/21 00:18:32;;;;;;;22.03;9.83;;;1.00;99.90;;;;;;5049623;28;20223;-72
2023/01/21 00:20:58;;;;;;;23.13;8.67;;;0.90;99.90;;;;;;5050736;28;20191;-73
2023/01/21 00:23:23;;;;;;;20.23;8.93;;;0.80;99.90;;;;;;5050237;28;20679;-73
2023/01/21 00:25:55;;;;;;;24.57;8.67;;;0.80;99.90;;;;;;5049194;28;20246;-73
2023/01/21 00:28:21;;;;;;;17.17;8.07;;;0.80;99.90;;;;;;5049621;28;20617;-74
2023/01/21 00:30:46;;;;;;;21.50;8.60;;;0.90;99.90;;;;;;5050861;28;20276;-74
2023/01/21 00:33:12;;;;;;;18.07;8.27;;;0.90;99.90;;;;;;5044471;28;20238;-73
2023/01/21 00:35:37;;;;;;;15.30;7.80;;;0.90;99.90;;;;;;5050846;28;20250;-73
2023/01/21 00:38:03;;;;;;;14.70;7.57;;;0.90;99.90;;;;;;5049312;28;20207;-73
2023/01/21 00:40:29;;;;;;;16.27;8.00;;;0.90;99.90;;;;;;5050785;28;20238;-74
2023/01/21 00:42:54;;;;;;;14.37;8.50;;;1.00;99.90;;;;;;5051132;28;20203;-73
2023/01/21 00:45:20;;;;;;;13.57;7.07;;;1.00;99.90;;;;;;5050182;28;20219;-74
2023/01/21 00:47:46;;;;;;;11.57;6.77;;;0.90;99.90;;;;;;5051368;28;20278;-74
2023/01/21 00:50:11;;;;;;;18.23;7.40;;;1.00;99.90;;;;;;5049226;28;20201;-74
2023/01/21 00:52:37;;;;;;;14.53;6.87;;;1.00;99.90;;;;;;5050932;28;20220;-73
2023/01/21 00:55:04;;;;;;;14.60;7.00;;;1.00;99.90;;;;;;5050015;28;20249;-73
2023/01/21 00:57:29;;;;;;;16.83;6.57;;;1.00;99.90;;;;;;5050770;28;20226;-70
2023/01/21 00:59:55;;;;;;;14.50;7.00;;;1.00;99.90;;;;;;5050900;28;20187;-73
2023/01/21 01:02:21;;;;;;;14.23;7.23;;;1.00;99.90;;;;;;5046867;28;20586;-74
2023/01/21 01:04:46;;;;;;;11.87;6.87;;;1.10;99.90;;;;;;5049858;28;20408;-73
2023/01/21 01:07:12;;;;;;;15.60;7.00;;;1.00;99.90;;;;;;5044104;28;20307;-73
2023/01/21 01:09:37;;;;;;;11.70;6.90;;;1.10;99.90;;;;;;5050251;28;20707;-74
2023/01/21 01:12:03;;;;;;;15.70;7.33;;;1.00;99.90;;;;;;5049972;28;20180;-73
2023/01/21 01:14:29;;;;;;;17.40;7.03;;;1.10;99.90;;;;;;5048890;28;20240;-74
2023/01/21 01:16:54;;;;;;;12.90;6.50;;;1.10;99.90;;;;;;5050216;28;20218;-72
2023/01/21 01:19:20;;;;;;;16.80;7.43;;;1.10;99.90;;;;;;5048835;28;20218;-73
2023/01/21 01:21:46;;;;;;;15.27;7.30;;;1.20;99.90;;;;;;5049970;28;20207;-73
2023/01/21 01:24:11;;;;;;;15.10;7.40;;;1.20;99.90;;;;;;5049869;28;20200;-74
2023/01/21 01:26:37;;;;;;;13.43;7.33;;;1.20;99.90;;;;;;5050148;28;20186;-71
2023/01/21 01:29:04;;;;;;;12.60;7.30;;;1.10;99.90;;;;;;5048630;28;20225;-73
2023/01/21 01:31:30;;;;;;;13.77;6.83;;;1.10;99.90;;;;;;5049999;28;20243;-73
2023/01/21 01:33:56;;;;;;;14.27;6.80;;;1.10;99.90;;;;;;5049637;28;20682;-74
2023/01/21 01:36:24;;;;;;;15.80;6.93;;;1.10;99.90;;;;;;5072201;23;20818;-73
2023/01/21 01:38:51;;;;;;;11.43;6.77;;;1.00;99.90;;;;;;5051642;28;20203;-74
2023/01/21 01:41:26;;;;;;;14.93;7.77;;;0.90;99.90;;;;;;5050115;28;20676;-75
2023/01/21 01:44:00;;;;;;;16.60;7.37;;;0.80;99.90;;;;;;5043114;28;20201;-73
2023/01/21 01:46:29;;;;;;;14.40;6.40;;;0.80;99.90;;;;;;5049474;28;20200;-74
2023/01/21 01:49:07;;;;;;;11.87;6.10;;;0.70;99.90;;;;;;5036586;28;20310;-75
2023/01/21 01:51:54;;;;;;;11.67;6.23;;;0.80;99.90;;;;;;5041056;28;20241;-74
2023/01/21 01:54:27;;;;;;;15.57;6.73;;;0.80;99.90;;;;;;5043111;28;20264;-75
2023/01/21 01:56:56;;;;;;;14.17;5.73;;;0.80;99.90;;;;;;5037137;28;20692;-74
2023/01/21 01:59:22;;;;;;;10.60;6.07;;;0.90;99.90;;;;;;5037832;28;20209;-74
2023/01/21 02:01:51;;;;;;;12.37;5.93;;;0.90;99.90;;;;;;5037114;28;20223;-73
2023/01/21 02:04:21;;;;;;;15.43;6.53;;;0.90;99.90;;;;;;5034439;28;20295;-74
2023/01/21 02:06:49;;;;;;;15.00;7.30;;;0.90;99.90;;;;;;5038206;28;20212;-72
2023/01/21 02:09:15;;;;;;;12.87;6.93;;;1.00;99.90;;;;;;5041223;28;20194;-75
2023/01/21 02:11:40;;;;;;;12.40;6.90;;;1.00;99.90;;;;;;5039585;28;20215;-75
2023/01/21 02:14:06;;;;;;;14.63;7.90;;;1.00;99.90;;;;;;5038553;28;20213;-74
2023/01/21 02:17:00;;;;;;;18.47;8.80;;;0.90;99.90;;;;;;5040547;28;20638;-74
2023/01/21 02:19:43;;;;;;;18.07;8.43;;;1.00;99.90;;;;;;5030336;28;20213;-73
2023/01/21 02:22:38;;;;;;;20.43;9.33;;;1.00;99.90;;;;;;5026063;28;20237;-72
2023/01/21 02:25:25;;;;;;;20.07;9.23;;;1.00;99.90;;;;;;5040092;28;20565;-74
2023/01/21 02:28:15;;;;;;;24.50;10.63;;;1.10;99.90;;;;;;5039977;28;20996;-73
2023/01/21 02:31:00;;;;;;;21.10;10.00;;;1.10;99.90;;;;;;5043268;28;20209;-74
2023/01/21 02:33:56;;;;;;;23.63;11.67;;;1.10;99.90;;;;;;5041773;28;20233;-73
2023/01/21 02:36:48;;;;;;;25.13;11.10;;;1.10;99.90;;;;;;5043181;28;20761;-74
2023/01/21 02:39:43;;;;;;;24.77;11.00;;;1.10;99.90;;;;;;5039351;28;20191;-74
2023/01/21 02:42:24;;;;;;;23.20;11.97;;;1.10;99.90;;;;;;5028476;28;20298;-72
2023/01/21 02:44:55;;;;;;;28.50;12.50;;;1.10;99.90;;;;;;5040830;28;20183;-73
2023/01/21 02:47:42;;;;;;;20.87;10.43;;;1.10;99.90;;;;;;5045523;28;20207;-72
2023/01/21 02:50:25;;;;;;;22.40;10.70;;;1.10;99.90;;;;;;5043980;28;20250;-73
2023/01/21 02:52:58;;;;;;;23.43;11.07;;;1.10;99.90;;;;;;5038763;28;20615;-74
2023/01/21 02:55:28;;;;;;;21.23;11.20;;;1.10;99.90;;;;;;5044041;28;20219;-74
2023/01/21 02:58:00;;;;;;;27.63;11.50;;;1.10;99.90;;;;;;5040245;28;20227;-75
2023/01/21 03:00:32;;;;;;;18.87;9.30;;;1.10;99.90;;;;;;5045215;28;20215;-74
2023/01/21 03:03:16;;;;;;;19.67;9.50;;;1.20;99.90;;;;;;5038689;28;20184;-74
2023/01/21 03:06:17;;;;;;;22.67;10.73;;;1.20;99.90;;;;;;5040928;28;20211;-74
2023/01/21 03:09:18;;;;;;;19.67;9.47;;;1.30;99.90;;;;;;5029835;28;20261;-74
2023/01/21 03:12:08;;;;;;;17.63;9.17;;;1.20;99.90;;;;;;5028539;28;20234;-74
2023/01/21 03:17:33;;;;;;;17.67;8.57;;;1.30;99.90;;;;;;5036934;28;20222;-74
2023/01/21 03:20:21;;;;;;;20.37;10.03;;;1.30;99.90;;;;;;5044409;28;20213;-74
2023/01/21 03:22:52;;;;;;;21.77;10.00;;;1.30;99.90;;;;;;5041697;28;20269;-71
2023/01/21 03:25:18;;;;;;;20.20;9.67;;;1.30;99.90;;;;;;5040221;28;20244;-74
2023/01/21 03:27:46;;;;;;;18.47;8.77;;;1.30;99.90;;;;;;5044532;28;20767;-74
2023/01/21 03:30:15;;;;;;;19.63;10.60;;;1.30;99.90;;;;;;5042848;28;20190;-74
2023/01/21 03:32:46;;;;;;;16.30;9.33;;;1.40;99.90;;;;;;5041017;28;20180;-75
2023/01/21 03:35:16;;;;;;;18.47;9.03;;;1.40;99.90;;;;;;5042636;28;20223;-74
2023/01/21 03:37:56;;;;;;;20.43;8.93;;;1.40;99.90;;;;;;5043336;28;20706;-74
2023/01/21 03:40:31;;;;;;;17.77;9.63;;;1.40;99.90;;;;;;5043988;28;20706;-74
2023/01/21 03:42:57;;;;;;;18.00;8.90;;;1.30;99.90;;;;;;5039732;28;20717;-74
2023/01/21 03:45:37;;;;;;;16.63;8.77;;;1.40;99.90;;;;;;5042989;28;20294;-74
2023/01/21 03:48:15;;;;;;;17.70;9.37;;;1.40;99.90;;;;;;5044237;28;20281;-75
2023/01/21 03:50:47;;;;;;;15.20;8.17;;;1.40;99.90;;;;;;5046260;28;20630;-73
2023/01/21 03:53:12;;;;;;;14.97;8.00;;;1.40;99.90;;;;;;5045626;28;20204;-75
2023/01/21 03:55:38;;;;;;;16.60;8.97;;;1.40;99.90;;;;;;5043729;28;20226;-73
2023/01/21 03:58:04;;;;;;;14.33;7.80;;;1.40;99.90;;;;;;5043364;28;20219;-74
2023/01/21 04:00:29;;;;;;;17.03;7.97;;;1.40;99.90;;;;;;5043761;28;20215;-75
2023/01/21 04:02:55;;;;;;;15.53;8.50;;;1.40;99.90;;;;;;5040674;28;20529;-74
2023/01/21 04:05:20;;;;;;;16.47;8.27;;;1.40;99.90;;;;;;5046205;28;20222;-74
2023/01/21 04:07:46;;;;;;;14.60;7.70;;;1.40;99.90;;;;;;5040192;28;20277;-74
2023/01/21 04:10:12;;;;;;;15.80;8.40;;;1.30;99.90;;;;;;5040993;28;20774;-74
2023/01/21 04:12:37;;;;;;;16.43;8.23;;;1.30;99.90;;;;;;5043764;28;20216;-74
2023/01/21 04:15:03;;;;;;;15.37;8.23;;;1.30;99.90;;;;;;5041391;28;20277;-73
2023/01/21 04:17:29;;;;;;;15.37;7.70;;;1.30;99.90;;;;;;5045204;28;20280;-75
2023/01/21 04:19:54;;;;;;;13.43;6.87;;;1.40;99.90;;;;;;5052760;28;20271;-74
2023/01/21 04:22:20;;;;;;;12.43;7.03;;;1.40;99.90;;;;;;5056131;28;20210;-74
2023/01/21 04:24:46;;;;;;;11.57;6.10;;;1.30;99.90;;;;;;5069091;28;20212;-75
2023/01/21 04:27:11;;;;;;;11.27;6.33;;;1.30;99.90;;;;;;5043692;28;20210;-74
2023/01/21 04:29:37;;;;;;;12.63;6.90;;;1.30;99.90;;;;;;5043722;28;20626;-74
2023/01/21 04:32:03;;;;;;;12.63;6.87;;;1.30;99.90;;;;;;5037106;28;20223;-74
2023/01/21 04:34:28;;;;;;;12.50;6.83;;;1.40;99.90;;;;;;5055422;28;20216;-73
2023/01/21 04:36:54;;;;;;;10.27;6.27;;;1.40;99.90;;;;;;5050547;28;20326;-73
2023/01/21 04:39:20;;;;;;;10.43;6.20;;;1.40;99.90;;;;;;5050343;28;21086;-74
2023/01/21 04:41:45;;;;;;;9.03;5.47;;;1.40;99.90;;;;;;5046249;28;20183;-75
2023/01/21 04:44:11;;;;;;;9.93;5.47;;;1.30;99.90;;;;;;5041219;28;20245;-74
2023/01/21 04:46:36;;;;;;;9.73;5.33;;;1.30;99.90;;;;;;5043896;28;20220;-74
2023/01/21 04:49:02;;;;;;;12.90;6.07;;;1.30;99.90;;;;;;5037811;28;20208;-75
2023/01/21 04:51:28;;;;;;;9.10;5.43;;;1.30;99.90;;;;;;5038654;28;20226;-74
2023/01/21 04:53:53;;;;;;;9.83;5.90;;;1.30;99.90;;;;;;5042139;28;20556;-72
2023/01/21 04:56:19;;;;;;;10.50;6.20;;;1.20;99.90;;;;;;5041457;28;20260;-75
2023/01/21 04:58:44;;;;;;;12.43;6.50;;;1.20;99.90;;;;;;5042803;28;20210;-74
2023/01/21 05:01:10;;;;;;;12.00;7.47;;;1.20;99.90;;;;;;5039593;28;20402;-74
2023/01/21 05:03:36;;;;;;;11.73;6.70;;;1.10;99.90;;;;;;5041059;28;20608;-73
2023/01/21 05:06:01;;;;;;;15.03;6.50;;;1.10;99.90;;;;;;5039513;28;20305;-75
2023/01/21 05:08:27;;;;;;;10.57;5.13;;;1.10;99.90;;;;;;5039923;28;20203;-74
2023/01/21 05:10:52;;;;;;;11.90;6.93;;;1.10;99.90;;;;;;5038885;28;20204;-74
2023/01/21 05:13:18;;;;;;;8.30;5.43;;;1.10;99.90;;;;;;5042550;28;20767;-75
2023/01/21 05:15:43;;;;;;;9.20;5.60;;;1.10;99.90;;;;;;5038343;28;20225;-74
2023/01/21 05:18:09;;;;;;;14.27;6.00;;;1.10;99.90;;;;;;5042827;28;20199;-74
2023/01/21 05:20:35;;;;;;;11.53;6.03;;;1.10;99.90;;;;;;5043509;28;20244;-74
2023/01/21 05:23:00;;;;;;;14.47;6.40;;;1.10;99.90;;;;;;5037561;28;20232;-74
2023/01/21 05:25:26;;;;;;;9.63;6.10;;;1.20;99.90;;;;;;5046084;28;20679;-74
2023/01/21 05:27:53;;;;;;;11.07;6.30;;;1.30;99.90;;;;;;5042871;28;20208;-74
2023/01/21 05:30:19;;;;;;;12.43;6.17;;;1.20;99.90;;;;;;5046732;28;20229;-74
2023/01/21 05:32:51;;;;;;;10.53;6.03;;;1.20;99.90;;;;;;5045524;28;20801;-73
2023/01/21 05:35:19;;;;;;;10.53;6.10;;;1.20;99.90;;;;;;5042606;28;20206;-74
2023/01/21 05:37:46;;;;;;;11.87;5.80;;;1.20;99.90;;;;;;5037837;28;20254;-73
2023/01/21 05:40:13;;;;;;;12.10;6.60;;;1.20;99.90;;;;;;5041094;28;20204;-74
2023/01/21 05:42:39;;;;;;;12.63;5.60;;;1.30;99.90;;;;;;5040900;28;20218;-74
2023/01/21 05:45:05;;;;;;;11.73;6.27;;;1.30;99.90;;;;;;5040250;28;20180;-74
2023/01/21 05:47:31;;;;;;;11.63;5.90;;;1.20;99.90;;;;;;5046088;28;20207;-73
2023/01/21 05:49:56;;;;;;;10.27;5.70;;;1.20;99.90;;;;;;5042753;28;20211;-72
2023/01/21 05:52:22;;;;;;;9.83;5.60;;;1.30;99.90;;;;;;5042624;28;20208;-74
2023/01/21 05:54:47;;;;;;;11.43;6.13;;;1.30;99.90;;;;;;5046033;28;20225;-72
2023/01/21 05:57:13;;;;;;;10.93;6.27;;;1.30;99.90;;;;;;5043264;28;20200;-73
2023/01/21 05:59:39;;;;;;;10.77;5.93;;;1.40;99.90;;;;;;5051039;28;20180;-75
2023/01/21 06:02:04;;;;;;;12.07;5.67;;;1.30;99.90;;;;;;5044976;28;20211;-74
2023/01/21 06:04:30;;;;;;;10.80;6.03;;;1.30;99.90;;;;;;5046135;28;20242;-71
2023/01/21 06:06:56;;;;;;;15.80;6.93;;;1.40;99.90;;;;;;5045654;28;20211;-75
2023/01/21 06:09:22;;;;;;;12.33;6.77;;;1.40;99.90;;;;;;5047727;28;20223;-74
2023/01/21 06:11:47;;;;;;;13.13;6.37;;;1.40;99.90;;;;;;5049911;28;20187;-72
2023/01/21 06:14:13;;;;;;;11.60;5.80;;;1.40;99.90;;;;;;5045489;28;20212;-73
2023/01/21 06:16:39;;;;;;;14.23;6.07;;;1.40;99.90;;;;;;5049389;28;20215;-74
2023/01/21 06:19:04;;;;;;;13.57;6.87;;;1.50;99.90;;;;;;5048884;28;20669;-75
2023/01/21 06:21:30;;;;;;;11.50;6.10;;;1.50;99.90;;;;;;5049101;28;20723;-75
2023/01/21 06:23:56;;;;;;;13.50;6.60;;;1.40;99.90;;;;;;5046633;28;20180;-74
2023/01/21 06:26:22;;;;;;;11.77;6.87;;;1.40;99.90;;;;;;5050896;28;20230;-74
2023/01/21 06:28:47;;;;;;;12.73;7.23;;;1.50;99.90;;;;;;5048772;28;20892;-72
2023/01/21 06:31:13;;;;;;;15.97;7.73;;;1.50;99.90;;;;;;5048881;28;20211;-74
2023/01/21 06:33:39;;;;;;;12.40;7.13;;;1.50;99.90;;;;;;5065754;28;20645;-74
2023/01/21 06:36:04;;;;;;;16.90;7.40;;;1.50;99.90;;;;;;5042928;28;20200;-74
2023/01/21 06:38:34;;;;;;;16.00;8.33;;;1.50;99.90;;;;;;5049185;28;20206;-73
2023/01/21 06:41:01;;;;;;;16.33;8.70;;;1.40;99.90;;;;;;5043494;28;20199;-72
2023/01/21 06:43:26;;;;;;;15.00;8.00;;;1.50;99.90;;;;;;5046546;28;20220;-73
2023/01/21 06:45:52;;;;;;;18.10;8.33;;;1.40;99.90;;;;;;5041899;28;20560;-75
2023/01/21 06:48:18;;;;;;;15.33;8.33;;;1.50;99.90;;;;;;5045975;28;20216;-73
2023/01/21 06:50:43;;;;;;;19.00;8.97;;;1.50;99.90;;;;;;5040415;28;20581;-74
2023/01/21 06:53:09;;;;;;;18.80;9.80;;;1.50;99.90;;;;;;5048171;28;20242;-71
2023/01/21 06:55:35;;;;;;;17.27;9.23;;;1.50;99.90;;;;;;5045861;28;20206;-74
2023/01/21 06:58:00;;;;;;;16.47;9.73;;;1.50;99.90;;;;;;5044802;28;20203;-73
2023/01/21 07:00:26;;;;;;;15.97;9.17;;;1.60;99.90;;;;;;5064642;28;20604;-74
2023/01/21 07:02:56;;;;;;;16.73;8.90;;;1.50;99.90;;;;;;5044435;28;20180;-73
2023/01/21 07:05:21;;;;;;;18.73;9.70;;;1.60;99.90;;;;;;5048569;28;20223;-73
2023/01/21 07:07:47;;;;;;;19.50;11.03;;;1.60;99.90;;;;;;5047984;28;20225;-74
2023/01/21 07:10:12;;;;;;;22.83;10.63;;;1.60;99.90;;;;;;5042270;28;20277;-74
2023/01/21 07:12:38;;;;;;;22.13;10.40;;;1.60;99.90;;;;;;5050812;28;20443;-74
2023/01/21 07:15:04;;;;;;;24.83;10.30;;;1.60;99.90;;;;;;5044703;28;20198;-74
2023/01/21 07:17:30;;;;;;;22.83;11.60;;;1.60;99.90;;;;;;5045670;28;20200;-72
2023/01/21 07:19:56;;;;;;;22.83;11.37;;;1.60;99.90;;;;;;5049139;28;20686;-74
2023/01/21 07:22:21;;;;;;;26.10;11.03;;;1.60;99.90;;;;;;5045985;28;20591;-74
2023/01/21 07:24:47;;;;;;;21.60;10.87;;;1.50;99.90;;;;;;5044372;28;20801;-73
2023/01/21 07:27:13;;;;;;;20.73;12.10;;;1.40;99.90;;;;;;5044591;28;20294;-74
2023/01/21 07:29:38;;;;;;;22.50;12.73;;;1.40;99.90;;;;;;5044516;28;20616;-75
2023/01/21 07:32:04;;;;;;;23.10;12.67;;;1.40;99.90;;;;;;5044738;28;20309;-74
2023/01/21 07:34:30;;;;;;;25.47;14.27;;;1.50;99.90;;;;;;5045631;28;20689;-73
2023/01/21 07:36:55;;;;;;;26.17;12.63;;;1.50;99.90;;;;;;5040914;28;20233;-72
2023/01/21 07:39:21;;;;;;;20.37;12.03;;;1.60;99.90;;;;;;5044332;28;20215;-75
2023/01/21 07:41:47;;;;;;;24.37;12.60;;;1.60;99.90;;;;;;5042651;28;20225;-75
2023/01/21 07:44:12;;;;;;;20.57;11.90;;;1.60;99.90;;;;;;5042004;28;20232;-74
2023/01/21 07:46:38;;;;;;;26.30;11.73;;;1.60;99.90;;;;;;5048374;28;20245;-73
2023/01/21 07:49:04;;;;;;;22.70;11.83;;;1.60;99.90;;;;;;5037641;28;20305;-72
2023/01/21 07:51:29;;;;;;;20.50;10.37;;;1.60;99.90;;;;;;5045953;28;20297;-74
2023/01/21 07:53:58;;;;;;;22.27;12.87;;;1.60;99.90;;;;;;5047999;28;20175;-74
2023/01/21 07:56:25;;;;;;;21.83;11.80;;;1.60;99.90;;;;;;5044972;28;20343;-74
2023/01/21 07:58:51;;;;;;;20.73;11.33;;;1.60;99.90;;;;;;5045537;28;20240;-74
2023/01/21 08:01:16;;;;;;;20.70;11.93;;;1.60;99.90;;;;;;5043995;28;20739;-73
2023/01/21 08:03:42;;;;;;;22.43;11.77;;;1.60;99.90;;;;;;5043380;28;20207;-75
2023/01/21 08:06:08;;;;;;;22.70;12.67;;;1.60;99.90;;;;;;5048728;28;20560;-75
2023/01/21 08:08:33;;;;;;;20.03;11.13;;;1.70;99.90;;;;;;5043170;28;20567;-75
2023/01/21 08:10:59;;;;;;;21.67;11.73;;;1.70;99.90;;;;;;5043849;28;20213;-75
2023/01/21 08:13:25;;;;;;;23.80;11.93;;;1.70;99.90;;;;;;5042627;28;20695;-75
2023/01/21 08:15:51;;;;;;;19.67;11.43;;;1.70;99.90;;;;;;5042576;28;20222;-75
2023/01/21 08:18:18;;;;;;;22.10;12.17;;;1.70;99.90;;;;;;5042019;28;20219;-75
2023/01/21 08:20:44;;;;;;;22.93;11.00;;;1.70;99.90;;;;;;5047123;28;20233;-73
2023/01/21 08:23:10;;;;;;;19.20;11.07;;;1.70;99.90;;;;;;5036505;28;20783;-73
2023/01/21 08:25:35;;;;;;;23.30;11.73;;;1.80;99.90;;;;;;5042101;28;20250;-74
2023/01/21 08:28:01;;;;;;;19.53;10.80;;;1.80;99.90;;;;;;5043542;28;20580;-72
2023/01/21 08:30:27;;;;;;;19.90;10.57;;;1.80;99.90;;;;;;5039150;28;20204;-74
2023/01/21 08:32:52;;;;;;;20.80;11.90;;;1.90;99.90;;;;;;5043208;28;20875;-72
2023/01/21 08:35:18;;;;;;;19.57;10.97;;;1.90;99.90;;;;;;5041293;28;20561;-74
2023/01/21 08:37:44;;;;;;;19.57;10.77;;;2.00;99.90;;;;;;5041833;28;20302;-73
2023/01/21 08:40:10;;;;;;;21.67;11.23;;;2.00;99.90;;;;;;5044079;28;20230;-73
2023/01/21 08:42:35;;;;;;;22.37;12.23;;;2.10;99.90;;;;;;5045132;28;20294;-73
2023/01/21 08:45:01;;;;;;;20.43;11.00;;;2.20;99.90;;;;;;5041721;28;21518;-75
2023/01/21 08:47:27;;;;;;;19.63;11.70;;;2.20;99.90;;;;;;5045017;28;20260;-75
2023/01/21 08:49:52;;;;;;;20.63;11.83;;;2.20;99.90;;;;;;5040685;28;20217;-74
2023/01/21 08:52:19;;;;;;;19.20;11.50;;;2.20;99.90;;;;;;5040998;28;20258;-74
2023/01/21 08:54:45;;;;;;;21.83;10.97;;;2.30;99.90;;;;;;5043403;28;20223;-75
2023/01/21 08:57:11;;;;;;;20.87;11.67;;;2.30;99.90;;;;;;5039011;28;20567;-76
2023/01/21 08:59:36;;;;;;;18.27;10.13;;;2.30;99.90;;;;;;5047666;28;20720;-76
2023/01/21 09:02:02;;;;;;;21.93;11.10;;;2.30;99.90;;;;;;5045690;28;20307;-73
2023/01/21 09:04:28;;;;;;;18.90;11.00;;;2.30;99.90;;;;;;5042474;28;20203;-75
2023/01/21 09:06:54;;;;;;;18.57;11.37;;;2.40;99.90;;;;;;5045260;28;20206;-76
2023/01/21 09:09:19;;;;;;;18.70;10.57;;;2.40;99.90;;;;;;5042655;28;20212;-75
2023/01/21 09:11:45;;;;;;;22.90;11.13;;;2.40;99.90;;;;;;5045626;28;20175;-78
2023/01/21 09:14:11;;;;;;;19.00;11.07;;;2.50;99.90;;;;;;5046742;28;20211;-72
2023/01/21 09:16:38;;;;;;;19.17;10.20;;;2.50;99.90;;;;;;5049984;28;20233;-76
2023/01/21 09:19:04;;;;;;;20.73;11.13;;;2.50;99.90;;;;;;5026052;28;20200;-77
2023/01/21 09:21:33;;;;;;;19.83;10.97;;;2.60;99.90;;;;;;5043839;28;20206;-75
2023/01/21 09:23:58;;;;;;;18.27;10.63;;;2.60;99.90;;;;;;5044746;28;20186;-75
2023/01/21 09:26:24;;;;;;;18.90;10.63;;;2.60;99.90;;;;;;5041977;28;20290;-75
2023/01/21 09:28:55;;;;;;;17.53;10.37;;;2.50;99.90;;;;;;5038265;28;20203;-75
2023/01/21 09:31:22;;;;;;;20.27;10.80;;;2.60;99.90;;;;;;5042588;28;20243;-75
2023/01/21 09:33:51;;;;;;;18.10;10.70;;;2.60;99.90;;;;;;5045887;28;20681;-72
2023/01/21 09:36:20;;;;;;;17.67;10.57;;;2.60;99.90;;;;;;5038927;28;20216;-74
2023/01/21 09:38:47;;;;;;;20.17;11.53;;;2.70;99.90;;;;;;5050428;28;20274;-74
2023/01/21 09:41:25;;;;;;;17.17;10.73;;;2.80;99.90;;;;;;5042228;28;20212;-75
2023/01/21 09:44:12;;;;;;;22.77;11.20;;;2.80;99.90;;;;;;5043329;28;20286;-74
2023/01/21 09:47:01;;;;;;;21.97;10.80;;;2.80;99.90;;;;;;5037740;28;20208;-75
2023/01/21 09:49:33;;;;;;;23.40;12.07;;;2.80;99.90;;;;;;5039113;28;20211;-75
2023/01/21 09:52:13;;;;;;;23.70;12.47;;;2.90;99.90;;;;;;5045676;28;20235;-75
2023/01/21 09:54:39;;;;;;;20.87;10.97;;;2.90;99.90;;;;;;5041544;28;20485;-75
2023/01/21 09:57:14;;;;;;;21.40;10.87;;;2.80;99.90;;;;;;5037673;28;20548;-76
2023/01/21 09:59:45;;;;;;;19.30;11.50;;;2.80;99.90;;;;;;5039489;28;20196;-75
2023/01/21 10:02:24;;;;;;;20.43;10.37;;;2.80;99.90;;;;;;5040785;28;20231;-74
2023/01/21 10:05:24;;;;;;;24.60;11.47;;;2.80;99.90;;;;;;5041789;28;20261;-74
2023/01/21 10:08:02;;;;;;;24.20;12.23;;;2.90;99.90;;;;;;5046805;28;20353;-75
2023/01/21 10:10:36;;;;;;;19.53;10.10;;;3.00;99.90;;;;;;5022637;28;20571;-75
2023/01/21 10:13:02;;;;;;;17.50;10.17;;;2.90;99.90;;;;;;5047187;28;20202;-75
2023/01/21 10:15:41;;;;;;;18.60;10.00;;;3.00;99.90;;;;;;5040357;28;20221;-74
2023/01/21 10:18:14;;;;;;;25.60;13.60;;;3.00;99.90;;;;;;5039826;28;20200;-75
2023/01/21 10:21:09;;;;;;;26.97;14.23;;;3.10;99.90;;;;;;5038185;28;20650;-73
2023/01/21 10:23:46;;;;;;;19.13;11.47;;;3.20;99.90;;;;;;5023943;28;20230;-74
2023/01/21 10:26:13;;;;;;;20.67;10.67;;;3.20;99.90;;;;;;5034562;28;20229;-75
2023/01/21 10:28:48;;;;;;;22.03;11.07;;;3.20;99.90;;;;;;5056322;28;20219;-75
2023/01/21 10:31:28;;;;;;;20.43;10.33;;;3.20;99.90;;;;;;5037865;28;20216;-76
2023/01/21 10:33:54;;;;;;;17.63;10.17;;;3.20;99.90;;;;;;5045463;28;20197;-73
2023/01/21 10:37:02;;;;;;;16.93;10.27;;;3.20;99.90;;;;;;5037281;28;20270;-75
2023/01/21 10:39:37;;;;;;;16.63;10.73;;;3.20;99.90;;;;;;5039917;28;20221;-76
2023/01/21 10:42:47;;;;;;;18.70;10.00;;;3.30;99.90;;;;;;5041548;28;20602;-75
2023/01/21 10:45:33;;;;;;;18.70;9.60;;;3.30;99.90;;;;;;5022858;28;20176;-75
2023/01/21 10:48:23;;;;;;;16.93;10.03;;;3.30;99.90;;;;;;5031347;28;20205;-75
2023/01/21 10:51:03;;;;;;;18.77;11.10;;;3.40;99.90;;;;;;5014348;28;20213;-74
2023/01/21 10:53:35;;;;;;;18.43;9.90;;;3.40;99.90;;;;;;5047911;28;20232;-75
2023/01/21 10:56:28;;;;;;;18.43;10.03;;;3.50;99.90;;;;;;5042396;28;20208;-75
2023/01/21 10:59:05;;;;;;;16.47;10.40;;;3.60;99.90;;;;;;5046325;28;20323;-75
2023/01/21 11:01:38;;;;;;;19.20;9.87;;;3.50;99.90;;;;;;5047961;28;20228;-76
2023/01/21 11:04:14;;;;;;;15.43;9.27;;;3.70;99.90;;;;;;5043821;28;20220;-75
2023/01/21 11:06:41;;;;;;;21.87;11.03;;;3.70;99.90;;;;;;5043320;28;20208;-75
2023/01/21 11:09:11;;;;;;;19.23;9.57;;;3.80;99.90;;;;;;5045234;28;20208;-75
2023/01/21 11:11:39;;;;;;;14.97;9.27;;;3.90;99.90;;;;;;5048100;28;20213;-74
2023/01/21 11:14:04;;;;;;;17.97;9.70;;;3.80;99.90;;;;;;5045595;28;20835;-74
2023/01/21 11:16:48;;;;;;;16.97;10.00;;;3.80;99.90;;;;;;5044029;28;20303;-74
2023/01/21 11:19:22;;;;;;;16.37;9.87;;;3.90;99.90;;;;;;5044144;28;20205;-75
2023/01/21 11:22:03;;;;;;;17.83;9.10;;;4.00;99.90;;;;;;5042635;28;20210;-73
2023/01/21 11:24:31;;;;;;;15.30;9.10;;;3.90;99.90;;;;;;5044550;28;20216;-74
2023/01/21 11:27:00;;;;;;;15.73;9.10;;;4.00;99.90;;;;;;5047442;28;20192;-74
2023/01/21 11:29:39;;;;;;;15.63;8.80;;;4.10;99.90;;;;;;5042345;28;20205;-74
2023/01/21 11:32:16;;;;;;;14.20;8.40;;;4.00;99.90;;;;;;5047383;28;20209;-75
2023/01/21 11:34:46;;;;;;;17.73;9.30;;;4.00;99.90;;;;;;5029026;28;20217;-75
2023/01/21 11:37:26;;;;;;;13.97;9.23;;;4.10;99.90;;;;;;5041328;28;20214;-74
2023/01/21 11:39:59;;;;;;;14.73;8.70;;;4.20;99.90;;;;;;5041171;28;20209;-74
2023/01/21 11:42:25;;;;;;;15.77;8.83;;;4.20;99.90;;;;;;5039457;28;20304;-74
2023/01/21 11:45:00;;;;;;;20.40;8.93;;;4.20;99.90;;;;;;5047786;28;20693;-75
2023/01/21 11:47:45;;;;;;;17.10;9.07;;;4.00;99.90;;;;;;5045041;28;20248;-76
2023/01/21 11:50:21;;;;;;;13.67;8.73;;;4.10;99.90;;;;;;5046024;28;20304;-75
2023/01/21 11:52:48;;;;;;;16.00;8.63;;;4.10;99.90;;;;;;5043914;28;20217;-75
2023/01/21 11:55:20;;;;;;;16.70;8.90;;;4.10;99.90;;;;;;5044223;28;20214;-75
2023/01/21 11:57:55;;;;;;;17.00;8.87;;;4.00;99.90;;;;;;5043813;28;20318;-74
2023/01/21 12:00:28;;;;;;;11.53;7.83;;;4.10;99.90;;;;;;5045399;28;20243;-75
2023/01/21 12:03:04;;;;;;;14.00;8.10;;;4.20;99.90;;;;;;5040050;28;20205;-75
2023/01/21 12:05:41;;;;;;;14.40;8.03;;;4.20;99.90;;;;;;5046611;28;20222;-74
2023/01/21 12:08:23;;;;;;;12.33;7.53;;;4.10;99.90;;;;;;5040737;28;20218;-75
2023/01/21 12:10:51;;;;;;;12.67;7.33;;;4.10;99.90;;;;;;5044240;28;20742;-73
2023/01/21 12:13:23;;;;;;;18.17;10.43;;;4.10;99.90;;;;;;5046041;28;20211;-74
2023/01/21 12:16:02;;;;;;;14.60;8.00;;;4.10;99.90;;;;;;5040557;28;20218;-71
2023/01/21 12:19:06;;;;;;;16.83;8.93;;;4.20;99.90;;;;;;5037676;28;20252;-75
2023/01/21 12:22:24;;;;;;;14.50;8.40;;;4.20;99.90;;;;;;5042829;28;20223;-74
2023/01/21 12:25:15;;;;;;;11.47;6.60;;;4.20;99.90;;;;;;4986505;28;20294;-75
2023/01/21 12:28:05;;;;;;;11.57;7.23;;;4.30;99.90;;;;;;5043210;28;20209;-74
2023/01/21 12:31:00;;;;;;;14.33;6.90;;;4.30;99.90;;;;;;5039789;28;20697;-74
2023/01/21 12:33:29;;;;;;;10.07;6.30;;;4.30;99.90;;;;;;5043321;28;20271;-75
2023/01/21 12:35:59;;;;;;;10.80;6.97;;;4.30;99.90;;;;;;5043613;28;20205;-74
2023/01/21 12:38:31;;;;;;;11.70;6.80;;;4.30;99.90;;;;;;5043134;28;20227;-75
2023/01/21 12:41:08;;;;;;;13.57;6.70;;;4.40;99.90;;;;;;5062289;28;20214;-75
2023/01/21 12:43:45;;;;;;;10.47;5.87;;;4.30;99.90;;;;;;5044619;28;20207;-75
2023/01/21 12:46:18;;;;;;;9.03;5.93;;;4.30;99.90;;;;;;5045029;28;20199;-74
2023/01/21 12:48:54;;;;;;;10.80;6.27;;;4.30;99.90;;;;;;5041556;28;20694;-74
2023/01/21 12:51:29;;;;;;;9.30;6.43;;;4.30;99.90;;;;;;5028295;28;20268;-74
2023/01/21 12:54:03;;;;;;;10.40;6.50;;;4.20;99.90;;;;;;5044609;28;20212;-75
2023/01/21 12:57:06;;;;;;;8.80;5.67;;;4.20;99.90;;;;;;5039868;28;20218;-74
2023/01/21 12:59:55;;;;;;;10.73;6.00;;;4.20;99.90;;;;;;5048249;28;20648;-75
2023/01/21 13:02:48;;;;;;;13.37;5.83;;;4.20;99.90;;;;;;5043273;28;20266;-73
2023/01/21 13:05:32;;;;;;;12.03;6.33;;;4.30;99.90;;;;;;5043818;28;20226;-75